Time;durP1;ratioP1;P1;durP2;ratioP2;P2;SDS_P1;SDS_P2;PMS_P1;PMS_P2;Temp;Humidity;BMP_temperature;BMP_pressure;BME280_temperature;BME280_humidity;BME280_pressure;Samples;Min_cycle;Max_cycle;Signal;HPM_P1;HPM_P2
2023/08/22 00:00:47;;;;;;;12.53;6.33;;;;;;;;;;5112898;28;20019;-70
2023/08/22 00:03:13;;;;;;;14.90;6.10;;;;;;;;;;5094412;28;20253;-70
2023/08/22 00:05:39;;;;;;;18.08;6.25;;;;;;;;;;5094560;28;20469;-70
2023/08/22 00:08:05;;;;;;;18.92;6.55;;;;;;;;;;5111655;28;20027;-70
2023/08/22 00:10:30;;;;;;;19.58;7.03;;;;;;;;;;5101419;28;20028;-70
2023/08/22 00:12:55;;;;;;;13.88;5.55;;;;;;;;;;5094206;28;20020;-70
2023/08/22 00:15:21;;;;;;;10.70;5.67;;;;;;;;;;5094127;28;20023;-70
2023/08/22 00:17:46;;;;;;;15.40;6.22;;;;;;;;;;5094358;28;20378;-70
2023/08/22 00:20:12;;;;;;;13.50;6.17;;;;;;;;;;5102675;28;20491;-70
2023/08/22 00:22:37;;;;;;;12.77;6.28;;;;;;;;;;5114075;28;20740;-70
2023/08/22 00:25:05;;;;;;;12.50;5.93;;;;;;;;;;5113809;28;20019;-70
2023/08/22 00:27:31;;;;;;;14.90;6.47;;;;;;;;;;5103374;28;20039;-70
2023/08/22 00:29:56;;;;;;;9.43;6.27;;;;;;;;;;5100414;28;20384;-70
2023/08/22 00:32:22;;;;;;;11.88;5.70;;;;;;;;;;5113565;28;20313;-70
2023/08/22 00:34:47;;;;;;;15.47;7.13;;;;;;;;;;5113625;28;20024;-70
2023/08/22 00:37:12;;;;;;;19.07;6.77;;;;;;;;;;5113594;28;20274;-70
2023/08/22 00:39:37;;;;;;;16.17;6.03;;;;;;;;;;5111957;28;20051;-70
2023/08/22 00:42:03;;;;;;;16.80;6.47;;;;;;;;;;5113837;28;20259;-70
2023/08/22 00:44:28;;;;;;;10.13;6.03;;;;;;;;;;5112863;28;20081;-70
2023/08/22 00:46:53;;;;;;;12.47;5.90;;;;;;;;;;5113477;28;20039;-70
2023/08/22 00:49:19;;;;;;;11.90;5.60;;;;;;;;;;5107894;28;20023;-70
2023/08/22 00:51:44;;;;;;;11.48;5.30;;;;;;;;;;5093815;28;20528;-70
2023/08/22 00:54:10;;;;;;;9.88;5.65;;;;;;;;;;5076715;28;20462;-70
2023/08/22 00:56:35;;;;;;;15.93;5.05;;;;;;;;;;5093489;28;20469;-70
2023/08/22 00:59:01;;;;;;;14.75;5.82;;;;;;;;;;5094512;28;20024;-70
2023/08/22 01:01:27;;;;;;;13.48;5.15;;;;;;;;;;5093375;28;20023;-70
2023/08/22 01:03:52;;;;;;;14.38;5.38;;;;;;;;;;5093632;28;20020;-70
2023/08/22 01:06:24;;;;;;;10.20;5.57;;;;;;;;;;5093302;28;20515;-70
2023/08/22 01:08:52;;;;;;;18.40;5.97;;;;;;;;;;5098207;28;20092;-70
2023/08/22 01:11:22;;;;;;;12.82;5.65;;;;;;;;;;5112755;28;20096;-70
2023/08/22 01:13:49;;;;;;;11.55;5.80;;;;;;;;;;5111354;28;20073;-70
2023/08/22 01:16:15;;;;;;;13.45;4.95;;;;;;;;;;5093526;28;20028;-70
2023/08/22 01:18:41;;;;;;;9.00;5.50;;;;;;;;;;5099103;28;20457;-70
2023/08/22 01:21:06;;;;;;;9.75;4.90;;;;;;;;;;5112854;28;20490;-70
2023/08/22 01:23:31;;;;;;;9.93;5.72;;;;;;;;;;5113205;28;20023;-70
2023/08/22 01:25:57;;;;;;;16.50;5.80;;;;;;;;;;5112856;28;20401;-71
2023/08/22 01:28:25;;;;;;;12.55;5.30;;;;;;;;;;5109244;28;20024;-70
2023/08/22 01:30:57;;;;;;;20.33;5.07;;;;;;;;;;5093141;28;20038;-69
2023/08/22 01:33:31;;;;;;;10.07;4.78;;;;;;;;;;5093011;28;20055;-70
2023/08/22 01:35:56;;;;;;;10.35;5.00;;;;;;;;;;5092999;28;20456;-70
2023/08/22 01:38:23;;;;;;;9.43;5.10;;;;;;;;;;5100768;28;20110;-69
2023/08/22 01:40:48;;;;;;;9.93;4.80;;;;;;;;;;5112797;28;20051;-70
2023/08/22 01:43:14;;;;;;;10.07;4.85;;;;;;;;;;5112713;28;20043;-70
2023/08/22 01:45:39;;;;;;;9.77;4.97;;;;;;;;;;5101706;28;20063;-70
2023/08/22 01:48:04;;;;;;;8.13;4.05;;;;;;;;;;5093941;28;20020;-70
2023/08/22 01:50:30;;;;;;;6.68;4.30;;;;;;;;;;5092803;28;20023;-70
2023/08/22 01:52:56;;;;;;;10.70;4.93;;;;;;;;;;5092956;28;20039;-70
2023/08/22 01:55:22;;;;;;;9.45;4.47;;;;;;;;;;5092991;28;20640;-70
2023/08/22 01:57:47;;;;;;;10.30;4.93;;;;;;;;;;5098101;28;20027;-70
2023/08/22 02:00:12;;;;;;;14.70;4.80;;;;;;;;;;5112307;28;20028;-70
2023/08/22 02:02:37;;;;;;;10.80;4.50;;;;;;;;;;5112446;28;20028;-71
2023/08/22 02:05:03;;;;;;;8.60;4.93;;;;;;;;;;5112614;28;20037;-71
2023/08/22 02:07:28;;;;;;;9.75;4.28;;;;;;;;;;5109579;28;20031;-70
2023/08/22 02:09:53;;;;;;;11.45;4.57;;;;;;;;;;5093621;28;20063;-70
2023/08/22 02:12:18;;;;;;;9.33;5.03;;;;;;;;;;5092925;28;20031;-70
2023/08/22 02:14:44;;;;;;;14.47;4.77;;;;;;;;;;5092625;28;20294;-71
2023/08/22 02:17:09;;;;;;;11.80;4.27;;;;;;;;;;5092695;28;20020;-70
2023/08/22 02:19:34;;;;;;;11.15;5.15;;;;;;;;;;5092888;28;20031;-70
2023/08/22 02:21:59;;;;;;;11.97;5.70;;;;;;;;;;5096664;28;20524;-70
2023/08/22 02:24:24;;;;;;;13.80;5.47;;;;;;;;;;5096472;28;20086;-70
2023/08/22 02:26:50;;;;;;;10.83;5.90;;;;;;;;;;5096288;28;20269;-70
2023/08/22 02:29:16;;;;;;;11.03;4.57;;;;;;;;;;5112314;28;20094;-70
2023/08/22 02:31:41;;;;;;;8.45;4.65;;;;;;;;;;5115689;28;20024;-70
2023/08/22 02:34:06;;;;;;;7.97;4.40;;;;;;;;;;5115960;28;20032;-70
2023/08/22 02:36:31;;;;;;;12.43;5.60;;;;;;;;;;5115576;28;20282;-70
2023/08/22 02:38:57;;;;;;;8.00;4.47;;;;;;;;;;5114411;28;20036;-70
2023/08/22 02:41:22;;;;;;;18.30;4.40;;;;;;;;;;5115823;28;20019;-70
2023/08/22 02:43:47;;;;;;;11.83;4.37;;;;;;;;;;5115484;28;20403;-70
2023/08/22 02:46:12;;;;;;;9.40;5.10;;;;;;;;;;5115612;28;20368;-70
2023/08/22 02:48:38;;;;;;;7.77;4.73;;;;;;;;;;5115746;28;20407;-65
2023/08/22 02:51:04;;;;;;;10.85;4.85;;;;;;;;;;5096942;28;20016;-65
2023/08/22 02:53:29;;;;;;;7.35;4.85;;;;;;;;;;5096012;28;20024;-65
2023/08/22 02:55:54;;;;;;;13.77;5.32;;;;;;;;;;5103645;28;20026;-65
2023/08/22 02:58:19;;;;;;;9.73;4.50;;;;;;;;;;5115198;28;20084;-65
2023/08/22 03:00:46;;;;;;;18.80;5.30;;;;;;;;;;5100118;28;20024;-65
2023/08/22 03:03:11;;;;;;;13.68;5.35;;;;;;;;;;5095759;28;20801;-66
2023/08/22 03:05:37;;;;;;;10.85;5.03;;;;;;;;;;5095758;28;20104;-65
2023/08/22 03:08:02;;;;;;;9.00;4.47;;;;;;;;;;5095429;28;20112;-66
2023/08/22 03:10:28;;;;;;;9.07;4.45;;;;;;;;;;5096495;28;20725;-65
2023/08/22 03:12:53;;;;;;;7.50;4.60;;;;;;;;;;5095457;28;20024;-66
2023/08/22 03:15:18;;;;;;;6.83;3.83;;;;;;;;;;5095515;28;20268;-65
2023/08/22 03:17:43;;;;;;;9.13;4.60;;;;;;;;;;5095245;28;20272;-65
2023/08/22 03:20:09;;;;;;;5.80;4.00;;;;;;;;;;5110401;28;20034;-65
2023/08/22 03:22:34;;;;;;;9.25;3.92;;;;;;;;;;5106479;28;20026;-65
2023/08/22 03:24:59;;;;;;;7.90;3.50;;;;;;;;;;5115213;28;20035;-66
2023/08/22 03:27:24;;;;;;;7.80;4.73;;;;;;;;;;5114950;28;20474;-65
2023/08/22 03:29:50;;;;;;;14.80;5.00;;;;;;;;;;5097695;28;20020;-66
2023/08/22 03:32:15;;;;;;;8.07;3.57;;;;;;;;;;5094114;28;20020;-65
2023/08/22 03:34:40;;;;;;;10.83;4.03;;;;;;;;;;5094983;28;20012;-65
2023/08/22 03:37:05;;;;;;;9.50;4.50;;;;;;;;;;5105708;28;20365;-65
2023/08/22 03:39:30;;;;;;;12.67;4.63;;;;;;;;;;5112683;28;20024;-65
2023/08/22 03:41:56;;;;;;;12.87;4.40;;;;;;;;;;5114618;28;20024;-65
2023/08/22 03:44:21;;;;;;;10.53;5.00;;;;;;;;;;5114099;28;20412;-65
2023/08/22 03:46:46;;;;;;;13.90;5.07;;;;;;;;;;5114523;28;20019;-65
2023/08/22 03:49:11;;;;;;;10.07;4.60;;;;;;;;;;5113002;28;20024;-65
2023/08/22 03:51:36;;;;;;;10.23;5.20;;;;;;;;;;5114097;28;20268;-65
2023/08/22 03:54:02;;;;;;;13.87;4.23;;;;;;;;;;5114513;28;20268;-65
2023/08/22 03:56:27;;;;;;;8.95;4.30;;;;;;;;;;5113125;28;20045;-70
2023/08/22 03:58:52;;;;;;;5.40;3.83;;;;;;;;;;5103036;28;20385;-65
2023/08/22 04:01:17;;;;;;;6.10;3.90;;;;;;;;;;5094544;28;20028;-65
2023/08/22 04:03:42;;;;;;;10.27;4.40;;;;;;;;;;5094355;28;20028;-66
2023/08/22 04:06:08;;;;;;;8.60;4.32;;;;;;;;;;5094330;28;20050;-65
2023/08/22 04:08:33;;;;;;;7.77;4.57;;;;;;;;;;5102404;28;20031;-66
2023/08/22 04:10:58;;;;;;;11.53;5.17;;;;;;;;;;5113685;28;20263;-65
2023/08/22 04:13:23;;;;;;;8.50;4.93;;;;;;;;;;5112604;28;20027;-65
2023/08/22 04:15:49;;;;;;;9.90;4.53;;;;;;;;;;5113985;28;20012;-65
2023/08/22 04:18:14;;;;;;;5.55;3.65;;;;;;;;;;5112177;28;20026;-65
2023/08/22 04:20:42;;;;;;;5.10;3.50;;;;;;;;;;5113916;28;20385;-65
2023/08/22 04:23:08;;;;;;;7.25;4.05;;;;;;;;;;5113481;28;20260;-65
2023/08/22 04:25:33;;;;;;;6.80;3.80;;;;;;;;;;5113833;28;20038;-65
2023/08/22 04:27:58;;;;;;;5.07;3.50;;;;;;;;;;5106628;28;20267;-65
2023/08/22 04:30:23;;;;;;;6.90;3.70;;;;;;;;;;5093937;28;20394;-65
2023/08/22 04:32:48;;;;;;;9.00;4.13;;;;;;;;;;5093930;28;20605;-65
2023/08/22 04:35:14;;;;;;;8.00;3.97;;;;;;;;;;5093812;28;20024;-65
2023/08/22 04:37:39;;;;;;;10.95;3.83;;;;;;;;;;5094971;28;20028;-66
2023/08/22 04:40:04;;;;;;;7.03;3.70;;;;;;;;;;5098708;28;20023;-65
2023/08/22 04:42:29;;;;;;;7.32;3.78;;;;;;;;;;5113028;28;20633;-66
2023/08/22 04:44:55;;;;;;;6.87;4.20;;;;;;;;;;5113297;28;20079;-65
2023/08/22 04:47:20;;;;;;;7.10;3.80;;;;;;;;;;5107479;28;20020;-65
2023/08/22 04:49:46;;;;;;;9.87;3.50;;;;;;;;;;5093503;28;20118;-66
2023/08/22 04:52:11;;;;;;;9.73;3.47;;;;;;;;;;5093789;28;20257;-66
2023/08/22 04:54:36;;;;;;;8.73;3.47;;;;;;;;;;5093517;28;20020;-65
2023/08/22 04:57:01;;;;;;;6.20;3.97;;;;;;;;;;5096413;28;20023;-65
2023/08/22 04:59:26;;;;;;;5.60;3.80;;;;;;;;;;5113278;28;20022;-65
2023/08/22 05:01:52;;;;;;;10.07;4.23;;;;;;;;;;5112850;28;20272;-66
2023/08/22 05:04:17;;;;;;;5.97;3.47;;;;;;;;;;5113257;28;20082;-65
2023/08/22 05:06:43;;;;;;;3.40;2.70;;;;;;;;;;5111793;28;20469;-65
2023/08/22 05:09:09;;;;;;;4.85;3.13;;;;;;;;;;5102620;28;20679;-65
2023/08/22 05:11:35;;;;;;;4.13;2.97;;;;;;;;;;5093506;28;20069;-65
2023/08/22 05:14:00;;;;;;;4.90;3.28;;;;;;;;;;5093140;28;20025;-66
2023/08/22 05:16:25;;;;;;;6.63;3.22;;;;;;;;;;5094891;28;20059;-65
2023/08/22 05:18:50;;;;;;;3.90;2.73;;;;;;;;;;5113054;28;20020;-65
2023/08/22 05:21:15;;;;;;;4.13;2.80;;;;;;;;;;5112871;28;20043;-65
2023/08/22 05:23:41;;;;;;;7.03;3.37;;;;;;;;;;5113136;28;20268;-65
2023/08/22 05:26:06;;;;;;;8.17;3.10;;;;;;;;;;5111574;28;20023;-65
2023/08/22 05:28:31;;;;;;;8.80;4.17;;;;;;;;;;5093067;28;20023;-64
2023/08/22 05:30:56;;;;;;;5.60;3.27;;;;;;;;;;5093242;28;20039;-64
2023/08/22 05:33:21;;;;;;;9.93;3.17;;;;;;;;;;5093170;28;20249;-64
2023/08/22 05:35:47;;;;;;;12.50;3.23;;;;;;;;;;5094420;28;20027;-65
2023/08/22 05:38:12;;;;;;;6.07;3.53;;;;;;;;;;5110251;28;20031;-65
2023/08/22 05:40:37;;;;;;;16.73;3.95;;;;;;;;;;5113004;28;20019;-64
2023/08/22 05:43:03;;;;;;;7.25;3.80;;;;;;;;;;5112769;28;20019;-65
2023/08/22 05:45:28;;;;;;;7.53;3.17;;;;;;;;;;5111475;28;20089;-64
2023/08/22 05:47:53;;;;;;;6.90;3.87;;;;;;;;;;5112211;28;20114;-65
2023/08/22 05:50:18;;;;;;;14.25;4.57;;;;;;;;;;5112857;28;20031;-64
2023/08/22 05:52:44;;;;;;;12.67;4.10;;;;;;;;;;5112344;28;20020;-65
2023/08/22 05:55:09;;;;;;;10.27;4.57;;;;;;;;;;5113613;28;20022;-65
2023/08/22 05:57:34;;;;;;;8.32;3.95;;;;;;;;;;5100006;28;20016;-66
2023/08/22 05:59:59;;;;;;;9.93;3.73;;;;;;;;;;5096756;28;20103;-65
2023/08/22 06:02:25;;;;;;;13.25;4.03;;;;;;;;;;5111180;28;20034;-65
2023/08/22 06:04:50;;;;;;;11.00;3.53;;;;;;;;;;5116165;28;20104;-65
2023/08/22 06:07:15;;;;;;;7.33;3.30;;;;;;;;;;5103299;28;20071;-65
2023/08/22 06:09:41;;;;;;;9.60;3.85;;;;;;;;;;5096431;28;20745;-65
2023/08/22 06:12:07;;;;;;;11.55;3.95;;;;;;;;;;5096665;28;20024;-65
2023/08/22 06:14:32;;;;;;;11.40;4.22;;;;;;;;;;5096796;28;20115;-65
2023/08/22 06:16:58;;;;;;;9.93;3.53;;;;;;;;;;5107278;28;20047;-69
2023/08/22 06:19:23;;;;;;;8.40;4.07;;;;;;;;;;5116369;28;20283;-69
2023/08/22 06:21:48;;;;;;;10.30;3.90;;;;;;;;;;5115955;28;20103;-69
2023/08/22 06:24:14;;;;;;;8.37;3.70;;;;;;;;;;5116486;28;20491;-69
2023/08/22 06:26:39;;;;;;;19.88;3.75;;;;;;;;;;5114700;28;20287;-70
2023/08/22 06:29:04;;;;;;;7.10;3.80;;;;;;;;;;5099411;28;20074;-69
2023/08/22 06:31:30;;;;;;;11.07;4.00;;;;;;;;;;5096118;28;20260;-70
2023/08/22 06:33:55;;;;;;;16.15;4.47;;;;;;;;;;5096443;28;20027;-70
2023/08/22 06:36:20;;;;;;;14.63;4.47;;;;;;;;;;5105246;28;20493;-70
2023/08/22 06:38:45;;;;;;;14.37;4.17;;;;;;;;;;5115993;28;20264;-70
2023/08/22 06:41:11;;;;;;;6.30;3.57;;;;;;;;;;5115863;28;20423;-70
2023/08/22 06:43:36;;;;;;;11.43;4.47;;;;;;;;;;5101583;28;20275;-69
2023/08/22 06:46:01;;;;;;;12.70;3.47;;;;;;;;;;5107658;27;20295;-70
2023/08/22 06:48:30;;;;;;;8.18;3.47;;;;;;;;;;5103724;28;20363;-69
2023/08/22 06:50:55;;;;;;;5.63;3.70;;;;;;;;;;5110484;28;20036;-69
2023/08/22 06:53:20;;;;;;;8.18;3.40;;;;;;;;;;5106017;28;20027;-70
2023/08/22 06:55:46;;;;;;;9.47;3.33;;;;;;;;;;5095675;28;20032;-69
2023/08/22 06:58:11;;;;;;;12.40;3.42;;;;;;;;;;5100318;28;20538;-69
2023/08/22 07:00:36;;;;;;;8.23;4.10;;;;;;;;;;5115411;28;20015;-69
2023/08/22 07:03:01;;;;;;;10.77;3.93;;;;;;;;;;5115305;28;20023;-69
2023/08/22 07:05:27;;;;;;;8.70;3.47;;;;;;;;;;5104836;28;20028;-69
2023/08/22 07:07:52;;;;;;;8.47;3.67;;;;;;;;;;5095415;28;20441;-69
2023/08/22 07:10:17;;;;;;;11.43;4.00;;;;;;;;;;5095261;28;20031;-69
2023/08/22 07:12:42;;;;;;;5.60;3.40;;;;;;;;;;5094761;28;20024;-69
2023/08/22 07:15:08;;;;;;;5.47;3.53;;;;;;;;;;5107849;28;20252;-69
2023/08/22 07:17:33;;;;;;;6.85;4.07;;;;;;;;;;5114919;28;20028;-70
2023/08/22 07:19:58;;;;;;;8.77;3.42;;;;;;;;;;5111737;28;20370;-69
2023/08/22 07:22:24;;;;;;;7.73;3.53;;;;;;;;;;5094972;28;20035;-69
2023/08/22 07:24:49;;;;;;;13.13;3.63;;;;;;;;;;5094976;28;20020;-69
2023/08/22 07:27:14;;;;;;;9.40;3.60;;;;;;;;;;5094282;28;20461;-65
2023/08/22 07:29:39;;;;;;;5.97;3.77;;;;;;;;;;5094771;28;20118;-65
2023/08/22 07:32:05;;;;;;;7.00;3.22;;;;;;;;;;5095136;28;20016;-65
2023/08/22 07:34:31;;;;;;;10.32;3.22;;;;;;;;;;5094918;28;20031;-65
2023/08/22 07:36:56;;;;;;;7.72;3.97;;;;;;;;;;5100541;28;20031;-65
2023/08/22 07:39:22;;;;;;;7.93;2.97;;;;;;;;;;5114499;28;20034;-65
2023/08/22 07:41:47;;;;;;;6.13;2.70;;;;;;;;;;5114312;28;20380;-65
2023/08/22 07:44:13;;;;;;;9.03;2.90;;;;;;;;;;5114244;28;20016;-65
2023/08/22 07:46:38;;;;;;;7.38;2.53;;;;;;;;;;5103606;28;20461;-65
2023/08/22 07:49:03;;;;;;;6.60;2.70;;;;;;;;;;5094594;28;20039;-65
2023/08/22 07:51:28;;;;;;;6.20;2.17;;;;;;;;;;5094592;28;20035;-65
2023/08/22 07:53:54;;;;;;;4.72;2.25;;;;;;;;;;5094784;28;20031;-66
2023/08/22 07:56:19;;;;;;;8.57;2.40;;;;;;;;;;5094939;28;20145;-66
2023/08/22 07:58:45;;;;;;;9.03;2.80;;;;;;;;;;5104208;28;20028;-65
2023/08/22 08:01:10;;;;;;;5.40;2.33;;;;;;;;;;5115142;28;20016;-66
2023/08/22 08:03:35;;;;;;;6.97;2.22;;;;;;;;;;5102635;28;20023;-65
2023/08/22 08:06:00;;;;;;;7.53;2.50;;;;;;;;;;5114765;28;20020;-66
2023/08/22 08:08:26;;;;;;;7.30;2.07;;;;;;;;;;5114972;28;20272;-66
2023/08/22 08:10:51;;;;;;;4.60;2.23;;;;;;;;;;5114621;28;20016;-66
2023/08/22 08:13:16;;;;;;;4.67;1.83;;;;;;;;;;5114036;28;20297;-65
2023/08/22 08:15:41;;;;;;;5.23;2.20;;;;;;;;;;5097975;28;20031;-65
2023/08/22 08:18:07;;;;;;;8.13;2.50;;;;;;;;;;5093947;28;20069;-65
2023/08/22 08:20:32;;;;;;;9.60;2.65;;;;;;;;;;5094164;28;20243;-65
2023/08/22 08:22:57;;;;;;;10.00;3.33;;;;;;;;;;5094025;28;20043;-65
2023/08/22 08:25:22;;;;;;;7.70;2.27;;;;;;;;;;5094168;28;20030;-65
2023/08/22 08:27:48;;;;;;;5.83;2.60;;;;;;;;;;5093171;28;20484;-65
2023/08/22 08:30:13;;;;;;;4.13;2.30;;;;;;;;;;5093956;28;20017;-65
2023/08/22 08:32:39;;;;;;;7.97;2.00;;;;;;;;;;5093921;28;20271;-65
2023/08/22 08:35:04;;;;;;;3.63;2.17;;;;;;;;;;5093955;28;20020;-65
2023/08/22 08:37:30;;;;;;;5.35;2.15;;;;;;;;;;5094105;28;20114;-68
2023/08/22 08:39:55;;;;;;;5.50;1.77;;;;;;;;;;5097359;28;20433;-68
2023/08/22 08:42:20;;;;;;;5.27;2.07;;;;;;;;;;5113657;28;20020;-68
2023/08/22 08:44:45;;;;;;;6.72;2.30;;;;;;;;;;5114100;28;20078;-68
2023/08/22 08:47:11;;;;;;;6.37;2.30;;;;;;;;;;5114085;28;20055;-68
2023/08/22 08:49:37;;;;;;;5.00;2.03;;;;;;;;;;5114157;28;20027;-68
2023/08/22 08:52:03;;;;;;;7.32;2.65;;;;;;;;;;5098745;28;20020;-68
2023/08/22 08:54:28;;;;;;;12.30;3.42;;;;;;;;;;5075458;28;20024;-68
2023/08/22 08:56:54;;;;;;;4.75;2.45;;;;;;;;;;5092997;28;20061;-68
2023/08/22 08:59:19;;;;;;;8.15;2.53;;;;;;;;;;5093285;28;20067;-69
2023/08/22 09:01:45;;;;;;;5.00;2.47;;;;;;;;;;5093680;28;20106;-68
2023/08/22 09:04:11;;;;;;;6.00;2.75;;;;;;;;;;5093348;28;20196;-69
2023/08/22 09:06:37;;;;;;;16.27;3.70;;;;;;;;;;5101231;28;20031;-69
2023/08/22 09:09:08;;;;;;;5.63;2.83;;;;;;;;;;5112987;28;20419;-68
2023/08/22 09:11:33;;;;;;;;;;;;;;;;;;5095151;28;20469;-68
2023/08/22 09:13:58;;;;;;;6.55;2.70;;;;;;;;;;5106630;28;20364;-68
2023/08/22 09:16:24;;;;;;;3.70;2.17;;;;;;;;;;5111764;28;20026;-68
2023/08/22 09:18:49;;;;;;;6.72;2.22;;;;;;;;;;5094286;28;20019;-69
2023/08/22 09:21:16;;;;;;;8.02;2.47;;;;;;;;;;5096605;28;20389;-68
2023/08/22 09:23:42;;;;;;;8.63;2.25;;;;;;;;;;5103033;28;20046;-68
2023/08/22 09:26:11;;;;;;;6.28;2.45;;;;;;;;;;5094916;28;20063;-68
2023/08/22 09:28:39;;;;;;;4.78;2.05;;;;;;;;;;5105929;28;20023;-68
2023/08/22 09:31:05;;;;;;;5.05;2.08;;;;;;;;;;5115549;28;20066;-69
2023/08/22 09:33:43;;;;;;;6.70;2.50;;;;;;;;;;5101958;28;20043;-68
2023/08/22 09:36:09;;;;;;;6.70;2.25;;;;;;;;;;5109195;28;20472;-68
2023/08/22 09:38:49;;;;;;;6.15;2.00;;;;;;;;;;5116957;28;20475;-68
2023/08/22 09:41:20;;;;;;;2.95;1.40;;;;;;;;;;5117107;28;20107;-68
2023/08/22 09:43:45;;;;;;;8.63;1.90;;;;;;;;;;5102946;28;20012;-68
2023/08/22 09:46:10;;;;;;;8.03;1.70;;;;;;;;;;5096846;28;20101;-68
2023/08/22 09:48:37;;;;;;;8.43;1.85;;;;;;;;;;5097315;28;20800;-66
2023/08/22 09:51:03;;;;;;;3.60;1.88;;;;;;;;;;5097095;28;20055;-65
2023/08/22 09:53:29;;;;;;;5.32;1.70;;;;;;;;;;5097058;28;20016;-65
2023/08/22 09:55:55;;;;;;;5.53;1.98;;;;;;;;;;5112223;28;20591;-65
2023/08/22 09:58:21;;;;;;;3.47;1.60;;;;;;;;;;5107103;28;20048;-65
2023/08/22 10:00:47;;;;;;;5.47;2.10;;;;;;;;;;5096827;28;20027;-65
2023/08/22 10:03:13;;;;;;;6.05;1.80;;;;;;;;;;5097135;28;20047;-65
2023/08/22 10:05:39;;;;;;;5.68;2.25;;;;;;;;;;5097037;28;20508;-65
2023/08/22 10:08:04;;;;;;;3.75;1.83;;;;;;;;;;5097033;28;20024;-65
2023/08/22 10:10:30;;;;;;;3.80;1.83;;;;;;;;;;5095953;28;20020;-65
2023/08/22 10:12:56;;;;;;;6.07;2.10;;;;;;;;;;5096909;28;20031;-65
2023/08/22 10:15:21;;;;;;;8.50;2.67;;;;;;;;;;5096756;28;20422;-65
2023/08/22 10:17:46;;;;;;;5.82;2.42;;;;;;;;;;5096572;28;20103;-65
2023/08/22 10:20:12;;;;;;;5.40;2.10;;;;;;;;;;5096518;28;20047;-66
2023/08/22 10:22:37;;;;;;;8.32;2.28;;;;;;;;;;5096561;28;20063;-66
2023/08/22 10:25:04;;;;;;;5.90;2.10;;;;;;;;;;5096083;28;20023;-65
2023/08/22 10:27:29;;;;;;;5.07;2.17;;;;;;;;;;5096054;28;20085;-65
2023/08/22 10:30:13;;;;;;;6.23;2.27;;;;;;;;;;5096188;28;20024;-65
2023/08/22 10:32:38;;;;;;;4.13;2.00;;;;;;;;;;5096215;28;20023;-66
2023/08/22 10:35:23;;;;;;;4.82;2.03;;;;;;;;;;5096229;28;20016;-66
2023/08/22 10:37:49;;;;;;;5.85;2.10;;;;;;;;;;5096347;28;20020;-65
2023/08/22 10:40:25;;;;;;;7.85;2.15;;;;;;;;;;5095517;28;20016;-65
2023/08/22 10:42:52;;;;;;;6.85;2.13;;;;;;;;;;5096062;28;20020;-65
2023/08/22 10:45:18;;;;;;;6.65;1.92;;;;;;;;;;5095932;28;20056;-65
2023/08/22 10:47:47;;;;;;;8.82;2.15;;;;;;;;;;5096201;28;20527;-66
2023/08/22 10:50:12;;;;;;;5.25;2.20;;;;;;;;;;5095843;28;20023;-65
2023/08/22 10:52:38;;;;;;;5.10;1.80;;;;;;;;;;5096071;28;20016;-66
2023/08/22 10:55:03;;;;;;;4.50;1.88;;;;;;;;;;5104535;28;20686;-66
2023/08/22 10:57:32;;;;;;;3.23;1.70;;;;;;;;;;5113391;28;20385;-65
2023/08/22 11:00:01;;;;;;;4.60;2.10;;;;;;;;;;5095698;28;20521;-66
2023/08/22 11:02:30;;;;;;;6.88;2.72;;;;;;;;;;5095715;28;20017;-65
2023/08/22 11:04:56;;;;;;;5.90;2.13;;;;;;;;;;5095882;28;20485;-66
2023/08/22 11:07:22;;;;;;;4.30;2.10;;;;;;;;;;5095626;28;20065;-66
2023/08/22 11:09:48;;;;;;;6.55;2.20;;;;;;;;;;5094908;28;20154;-66
2023/08/22 11:12:17;;;;;;;5.72;2.08;;;;;;;;;;5104683;28;20059;-66
2023/08/22 11:14:43;;;;;;;5.03;2.60;;;;;;;;;;5095622;28;20022;-65
2023/08/22 11:17:08;;;;;;;2.35;1.75;;;;;;;;;;5094496;28;20603;-66
2023/08/22 11:19:35;;;;;;;5.73;2.03;;;;;;;;;;5095089;28;20165;-65
2023/08/22 11:22:00;;;;;;;4.82;2.10;;;;;;;;;;5095208;28;20032;-65
2023/08/22 11:24:26;;;;;;;5.80;1.93;;;;;;;;;;5095002;28;20363;-66
2023/08/22 11:26:52;;;;;;;7.85;2.50;;;;;;;;;;5095263;28;20306;-66
2023/08/22 11:29:21;;;;;;;7.95;2.40;;;;;;;;;;5094463;28;20023;-66
2023/08/22 11:31:46;;;;;;;4.38;2.00;;;;;;;;;;5094955;28;20036;-65
2023/08/22 11:34:11;;;;;;;6.73;1.70;;;;;;;;;;5096596;28;20062;-66
2023/08/22 11:36:37;;;;;;;7.20;2.13;;;;;;;;;;5114846;28;20100;-65
2023/08/22 11:39:03;;;;;;;4.18;2.13;;;;;;;;;;5114530;28;20051;-66
2023/08/22 11:41:28;;;;;;;6.70;2.13;;;;;;;;;;5114593;28;20385;-65
2023/08/22 11:43:55;;;;;;;7.47;2.13;;;;;;;;;;5114086;28;20023;-65
2023/08/22 11:46:22;;;;;;;5.07;2.22;;;;;;;;;;5095220;28;20539;-65
2023/08/22 11:48:49;;;;;;;6.15;2.10;;;;;;;;;;5094812;28;20036;-65
2023/08/22 11:51:20;;;;;;;4.10;2.30;;;;;;;;;;5094587;28;20505;-65
2023/08/22 11:53:46;;;;;;;5.10;2.60;;;;;;;;;;5104454;28;20542;-65
2023/08/22 11:56:12;;;;;;;5.22;2.42;;;;;;;;;;5099332;28;20016;-65
2023/08/22 11:58:42;;;;;;;7.10;2.90;;;;;;;;;;5093856;28;20023;-66
2023/08/22 12:01:08;;;;;;;5.68;2.65;;;;;;;;;;5094448;28;20055;-65
2023/08/22 12:03:43;;;;;;;7.55;2.45;;;;;;;;;;5075934;28;20059;-66
2023/08/22 12:06:12;;;;;;;6.43;2.67;;;;;;;;;;5094489;28;20411;-65
2023/08/22 12:08:37;;;;;;;5.18;2.72;;;;;;;;;;5094401;28;20473;-65
2023/08/22 12:11:03;;;;;;;6.07;2.60;;;;;;;;;;5101218;28;20038;-66
2023/08/22 12:13:29;;;;;;;8.52;2.60;;;;;;;;;;5093552;28;20465;-66
2023/08/22 12:15:54;;;;;;;3.97;2.40;;;;;;;;;;5094072;28;20004;-65
2023/08/22 12:18:26;;;;;;;6.45;2.20;;;;;;;;;;5094026;28;20430;-65
2023/08/22 12:20:52;;;;;;;11.68;2.83;;;;;;;;;;5094030;28;20099;-65
2023/08/22 12:23:17;;;;;;;5.63;2.83;;;;;;;;;;5093862;28;20158;-65
2023/08/22 12:25:43;;;;;;;6.87;3.00;;;;;;;;;;5094025;28;20260;-65
2023/08/22 12:28:09;;;;;;;6.22;2.50;;;;;;;;;;5093825;28;20089;-66
2023/08/22 12:30:35;;;;;;;7.43;2.40;;;;;;;;;;5094004;28;20473;-65
2023/08/22 12:33:01;;;;;;;5.75;2.60;;;;;;;;;;5093579;28;20408;-65
2023/08/22 12:35:26;;;;;;;5.90;2.90;;;;;;;;;;5093362;28;20043;-66
2023/08/22 12:37:51;;;;;;;6.78;2.72;;;;;;;;;;5093786;28;20012;-65
2023/08/22 12:40:17;;;;;;;4.77;2.27;;;;;;;;;;5093970;28;20039;-65
2023/08/22 12:42:42;;;;;;;7.27;2.60;;;;;;;;;;5093856;28;20347;-65
2023/08/22 12:45:08;;;;;;;7.47;2.80;;;;;;;;;;5092776;28;20785;-65
2023/08/22 12:47:35;;;;;;;5.57;2.60;;;;;;;;;;5093337;28;20424;-65
2023/08/22 12:50:00;;;;;;;7.35;3.28;;;;;;;;;;5093415;28;20031;-65
2023/08/22 12:52:27;;;;;;;6.47;2.72;;;;;;;;;;5093590;28;20044;-65
2023/08/22 12:54:52;;;;;;;7.60;3.00;;;;;;;;;;5093603;28;20070;-65
2023/08/22 12:57:17;;;;;;;7.80;2.50;;;;;;;;;;5093343;28;20490;-65
2023/08/22 12:59:42;;;;;;;7.37;2.70;;;;;;;;;;5074694;28;20033;-65
2023/08/22 13:02:08;;;;;;;11.10;2.67;;;;;;;;;;5093057;28;20051;-65
2023/08/22 13:04:33;;;;;;;9.00;3.60;;;;;;;;;;5093309;28;20074;-65
2023/08/22 13:06:58;;;;;;;9.13;3.30;;;;;;;;;;5093229;28;20351;-65
2023/08/22 13:09:23;;;;;;;7.27;3.17;;;;;;;;;;5093130;28;20028;-66
2023/08/22 13:11:49;;;;;;;9.17;3.30;;;;;;;;;;5093387;28;20040;-65
2023/08/22 13:14:14;;;;;;;5.23;2.87;;;;;;;;;;5107236;28;20256;-65
2023/08/22 13:16:39;;;;;;;5.23;2.97;;;;;;;;;;5112694;28;20760;-65
2023/08/22 13:19:04;;;;;;;6.27;2.87;;;;;;;;;;5100487;28;20049;-65
2023/08/22 13:21:30;;;;;;;6.53;3.00;;;;;;;;;;5093050;28;20763;-65
2023/08/22 13:23:55;;;;;;;6.65;2.92;;;;;;;;;;5093224;28;20020;-65
2023/08/22 13:26:20;;;;;;;9.13;3.33;;;;;;;;;;5093267;28;20020;-65
2023/08/22 13:28:45;;;;;;;5.57;2.90;;;;;;;;;;5092326;28;20273;-66
2023/08/22 13:31:11;;;;;;;11.53;3.07;;;;;;;;;;5092961;28;20018;-65
2023/08/22 13:33:36;;;;;;;6.15;2.80;;;;;;;;;;5092557;28;20706;-65
2023/08/22 13:36:01;;;;;;;5.47;3.10;;;;;;;;;;5092967;28;20035;-65
2023/08/22 13:38:27;;;;;;;6.20;3.17;;;;;;;;;;5092797;28;20020;-65
2023/08/22 13:40:52;;;;;;;5.70;3.53;;;;;;;;;;5092697;28;20261;-65
2023/08/22 13:43:17;;;;;;;6.97;3.40;;;;;;;;;;5092323;28;20047;-65
2023/08/22 13:45:42;;;;;;;8.73;3.33;;;;;;;;;;5092741;28;20059;-65
2023/08/22 13:48:09;;;;;;;7.17;3.50;;;;;;;;;;5092747;28;20028;-65
2023/08/22 13:50:34;;;;;;;8.70;3.63;;;;;;;;;;5092795;28;20284;-65
2023/08/22 13:52:59;;;;;;;5.10;2.97;;;;;;;;;;5092916;28;20039;-65
2023/08/22 13:55:24;;;;;;;8.10;3.40;;;;;;;;;;5093110;28;20016;-65
2023/08/22 13:57:50;;;;;;;6.57;3.40;;;;;;;;;;5097498;28;20023;-65
2023/08/22 14:00:15;;;;;;;8.83;3.30;;;;;;;;;;5112242;28;20061;-66
2023/08/22 14:02:40;;;;;;;7.38;3.08;;;;;;;;;;5106362;28;20043;-65
2023/08/22 14:05:06;;;;;;;10.50;3.10;;;;;;;;;;5111295;28;20024;-65
2023/08/22 14:07:31;;;;;;;11.65;3.28;;;;;;;;;;5093696;28;20036;-65
2023/08/22 14:09:56;;;;;;;6.90;3.53;;;;;;;;;;5096870;28;20027;-65
2023/08/22 14:12:22;;;;;;;7.78;2.90;;;;;;;;;;5094635;28;20465;-66
2023/08/22 14:14:47;;;;;;;7.87;3.13;;;;;;;;;;5092687;28;20020;-65
2023/08/22 14:17:12;;;;;;;9.23;3.37;;;;;;;;;;5094932;28;20306;-65
2023/08/22 14:19:37;;;;;;;9.20;3.97;;;;;;;;;;5096409;28;20059;-66
2023/08/22 14:22:03;;;;;;;5.27;3.57;;;;;;;;;;5096325;28;20529;-65
2023/08/22 14:24:28;;;;;;;6.50;2.97;;;;;;;;;;5096426;28;20488;-65
2023/08/22 14:26:53;;;;;;;7.10;3.10;;;;;;;;;;5096091;28;20409;-65
2023/08/22 14:29:19;;;;;;;7.00;3.33;;;;;;;;;;5095395;28;20280;-66
2023/08/22 14:31:44;;;;;;;10.30;3.95;;;;;;;;;;5095724;28;20043;-65